sensor_id;sensor_type;location;lat;lon;timestamp;pressure;altitude;pressure_sealevel;temperature;humidity
11190;BME280;5651;50.926;4.718;2022-10-31T00:02:10;101921.63;;;13.93;88.98
11190;BME280;5651;50.926;4.718;2022-10-31T00:04:36;101916.38;;;13.92;90.24
11190;BME280;5651;50.926;4.718;2022-10-31T00:07:02;101921.66;;;13.89;91.04
11190;BME280;5651;50.926;4.718;2022-10-31T00:09:27;101922.50;;;13.85;90.21
11190;BME280;5651;50.926;4.718;2022-10-31T00:11:53;101927.75;;;13.83;90.01
11190;BME280;5651;50.926;4.718;2022-10-31T00:14:19;101920.78;;;13.77;88.72
11190;BME280;5651;50.926;4.718;2022-10-31T00:16:44;101921.63;;;13.76;89.36
11190;BME280;5651;50.926;4.718;2022-10-31T00:19:10;101913.81;;;13.73;90.13
11190;BME280;5651;50.926;4.718;2022-10-31T00:21:36;101913.78;;;13.67;91.27
11190;BME280;5651;50.926;4.718;2022-10-31T00:24:02;101912.91;;;13.63;90.93
11190;BME280;5651;50.926;4.718;2022-10-31T00:26:29;101916.41;;;13.56;90.85
11190;BME280;5651;50.926;4.718;2022-10-31T00:28:57;101906.81;;;13.52;90.94
11190;BME280;5651;50.926;4.718;2022-10-31T00:31:23;101898.06;;;13.45;90.98
11190;BME280;5651;50.926;4.718;2022-10-31T00:33:48;101898.94;;;13.38;90.50
11190;BME280;5651;50.926;4.718;2022-10-31T00:36:17;101911.13;;;13.35;90.89
11190;BME280;5651;50.926;4.718;2022-10-31T00:38:43;101905.03;;;13.28;90.83
11190;BME280;5651;50.926;4.718;2022-10-31T00:41:10;101904.13;;;13.21;91.07
11190;BME280;5651;50.926;4.718;2022-10-31T00:43:36;101903.22;;;13.14;90.77
11190;BME280;5651;50.926;4.718;2022-10-31T00:46:02;101905.84;;;13.08;90.54
11190;BME280;5651;50.926;4.718;2022-10-31T00:48:28;101901.50;;;13.03;89.94
11190;BME280;5651;50.926;4.718;2022-10-31T00:50:54;101902.34;;;12.98;90.35
11190;BME280;5651;50.926;4.718;2022-10-31T00:53:19;101904.06;;;12.93;91.03
11190;BME280;5651;50.926;4.718;2022-10-31T00:55:45;101909.31;;;12.87;91.70
11190;BME280;5651;50.926;4.718;2022-10-31T00:58:11;101900.53;;;12.80;91.86
11190;BME280;5651;50.926;4.718;2022-10-31T01:00:37;101904.88;;;12.74;91.70
11190;BME280;5651;50.926;4.718;2022-10-31T01:03:02;101905.72;;;12.66;91.06
11190;BME280;5651;50.926;4.718;2022-10-31T01:05:28;101902.22;;;12.60;90.74
11190;BME280;5651;50.926;4.718;2022-10-31T01:07:54;101910.06;;;12.54;90.63
11190;BME280;5651;50.926;4.718;2022-10-31T01:10:19;101915.22;;;12.46;90.91
11190;BME280;5651;50.926;4.718;2022-10-31T01:12:47;101909.97;;;12.40;90.78
11190;BME280;5651;50.926;4.718;2022-10-31T01:15:14;101916.03;;;12.32;91.27
11190;BME280;5651;50.926;4.718;2022-10-31T01:17:41;101915.16;;;12.27;91.53
11190;BME280;5651;50.926;4.718;2022-10-31T01:20:08;101908.09;;;12.18;91.20
11190;BME280;5651;50.926;4.718;2022-10-31T01:22:34;101915.91;;;12.14;91.05
11190;BME280;5651;50.926;4.718;2022-10-31T01:24:59;101916.75;;;12.07;90.88
11190;BME280;5651;50.926;4.718;2022-10-31T01:27:25;101918.47;;;12.01;89.87
11190;BME280;5651;50.926;4.718;2022-10-31T01:29:51;101920.16;;;11.98;90.61
11190;BME280;5651;50.926;4.718;2022-10-31T01:32:17;101929.69;;;11.96;91.26
11190;BME280;5651;50.926;4.718;2022-10-31T01:34:42;101916.59;;;11.89;90.33
11190;BME280;5651;50.926;4.718;2022-10-31T01:37:08;101919.22;;;11.88;90.63
11190;BME280;5651;50.926;4.718;2022-10-31T01:39:33;101917.44;;;11.85;91.12
11190;BME280;5651;50.926;4.718;2022-10-31T01:41:59;101907.81;;;11.81;90.43
11190;BME280;5651;50.926;4.718;2022-10-31T01:52:07;101902.50;;;11.67;91.15
11190;BME280;5651;50.926;4.718;2022-10-31T01:54:43;101905.09;;;11.66;91.89
11190;BME280;5651;50.926;4.718;2022-10-31T01:57:13;101893.75;;;11.61;92.05
11190;BME280;5651;50.926;4.718;2022-10-31T01:59:43;101898.06;;;11.57;91.98
11190;BME280;5651;50.926;4.718;2022-10-31T02:02:11;101896.28;;;11.53;91.88
11190;BME280;5651;50.926;4.718;2022-10-31T02:04:38;101889.31;;;11.50;92.02
11190;BME280;5651;50.926;4.718;2022-10-31T02:07:12;101888.41;;;11.45;92.53
11190;BME280;5651;50.926;4.718;2022-10-31T02:09:39;101896.19;;;11.42;92.02
11190;BME280;5651;50.926;4.718;2022-10-31T02:12:06;101893.53;;;11.36;91.04
11190;BME280;5651;50.926;4.718;2022-10-31T02:14:35;101889.13;;;11.30;90.12
11190;BME280;5651;50.926;4.718;2022-10-31T02:17:00;101883.91;;;11.29;90.76
11190;BME280;5651;50.926;4.718;2022-10-31T02:22:22;101884.69;;;11.20;90.84
11190;BME280;5651;50.926;4.718;2022-10-31T02:25:02;101888.13;;;11.14;89.59
11190;BME280;5651;50.926;4.718;2022-10-31T02:30:22;101882.84;;;11.08;89.97
11190;BME280;5651;50.926;4.718;2022-10-31T02:38:33;101882.75;;;10.99;91.47
11190;BME280;5651;50.926;4.718;2022-10-31T02:41:32;101885.31;;;10.96;91.54
11190;BME280;5651;50.926;4.718;2022-10-31T02:44:07;101881.78;;;10.90;91.59
11190;BME280;5651;50.926;4.718;2022-10-31T02:49:51;101864.31;;;10.83;90.90
11190;BME280;5651;50.926;4.718;2022-10-31T02:52:25;101866.88;;;10.78;90.87
11190;BME280;5651;50.926;4.718;2022-10-31T02:54:51;101862.50;;;10.77;91.24
11190;BME280;5651;50.926;4.718;2022-10-31T02:57:20;101860.75;;;10.73;90.83
11190;BME280;5651;50.926;4.718;2022-10-31T02:59:50;101868.56;;;10.72;91.08
11190;BME280;5651;50.926;4.718;2022-10-31T03:02:23;101859.81;;;10.68;90.24
11190;BME280;5651;50.926;4.718;2022-10-31T03:10:04;101856.31;;;10.65;91.06
11190;BME280;5651;50.926;4.718;2022-10-31T03:12:47;101856.28;;;10.63;91.35
11190;BME280;5651;50.926;4.718;2022-10-31T03:15:25;101860.63;;;10.64;91.28
11190;BME280;5651;50.926;4.718;2022-10-31T03:20:28;101852.81;;;10.62;91.08
11190;BME280;5651;50.926;4.718;2022-10-31T03:22:56;101851.03;;;10.60;90.73
11190;BME280;5651;50.926;4.718;2022-10-31T03:25:22;101851.91;;;10.59;91.42
11190;BME280;5651;50.926;4.718;2022-10-31T03:27:49;101853.59;;;10.57;90.98
11190;BME280;5651;50.926;4.718;2022-10-31T03:30:16;101853.59;;;10.57;91.08
11190;BME280;5651;50.926;4.718;2022-10-31T03:32:51;101851.81;;;10.53;91.39
11190;BME280;5651;50.926;4.718;2022-10-31T03:35:20;101863.09;;;10.52;91.30
11190;BME280;5651;50.926;4.718;2022-10-31T03:37:49;101862.19;;;10.50;91.39
11190;BME280;5651;50.926;4.718;2022-10-31T03:40:19;101863.91;;;10.48;92.04
11190;BME280;5651;50.926;4.718;2022-10-31T03:42:56;101851.72;;;10.45;92.00
11190;BME280;5651;50.926;4.718;2022-10-31T03:45:29;101849.97;;;10.42;92.11
11190;BME280;5651;50.926;4.718;2022-10-31T03:47:57;101845.59;;;10.40;92.28
11190;BME280;5651;50.926;4.718;2022-10-31T03:50:26;101844.69;;;10.38;92.06
11190;BME280;5651;50.926;4.718;2022-10-31T03:53:03;101850.69;;;10.35;91.80
11190;BME280;5651;50.926;4.718;2022-10-31T03:58:12;101854.09;;;10.29;92.20
11190;BME280;5651;50.926;4.718;2022-10-31T04:00:42;101859.28;;;10.26;91.89
11190;BME280;5651;50.926;4.718;2022-10-31T04:03:26;101847.94;;;10.23;91.53
11190;BME280;5651;50.926;4.718;2022-10-31T04:05:55;101846.16;;;10.19;91.31
11190;BME280;5651;50.926;4.718;2022-10-31T04:08:26;101847.88;;;10.18;90.95
11190;BME280;5651;50.926;4.718;2022-10-31T04:10:56;101851.34;;;10.15;90.69
11190;BME280;5651;50.926;4.718;2022-10-31T04:13:29;101846.94;;;10.13;90.62
11190;BME280;5651;50.926;4.718;2022-10-31T04:15:57;101851.28;;;10.12;91.86
11190;BME280;5651;50.926;4.718;2022-10-31T04:18:24;101852.97;;;10.10;91.66
11190;BME280;5651;50.926;4.718;2022-10-31T04:21:07;101843.38;;;10.06;90.79
11190;BME280;5651;50.926;4.718;2022-10-31T04:23:34;101845.09;;;10.06;91.69
11190;BME280;5651;50.926;4.718;2022-10-31T04:26:00;101846.78;;;10.02;91.55
11190;BME280;5651;50.926;4.718;2022-10-31T04:28:26;101847.59;;;9.98;91.62
11190;BME280;5651;50.926;4.718;2022-10-31T04:30:52;101844.94;;;9.93;91.43
11190;BME280;5651;50.926;4.718;2022-10-31T04:33:18;101844.94;;;9.92;90.83
11190;BME280;5651;50.926;4.718;2022-10-31T04:35:44;101844.03;;;9.90;92.15
11190;BME280;5651;50.926;4.718;2022-10-31T04:38:10;101848.31;;;9.88;91.46
11190;BME280;5651;50.926;4.718;2022-10-31T04:40:36;101841.34;;;9.87;91.34
11190;BME280;5651;50.926;4.718;2022-10-31T04:43:01;101850.94;;;9.88;91.39
11190;BME280;5651;50.926;4.718;2022-10-31T04:45:27;101842.25;;;9.89;91.75
11190;BME280;5651;50.926;4.718;2022-10-31T04:47:52;101844.88;;;9.89;92.19
11190;BME280;5651;50.926;4.718;2022-10-31T04:50:18;101844.88;;;9.90;92.28
11190;BME280;5651;50.926;4.718;2022-10-31T04:52:45;101845.78;;;9.91;92.44
11190;BME280;5651;50.926;4.718;2022-10-31T04:55:12;101846.63;;;9.91;91.29
11190;BME280;5651;50.926;4.718;2022-10-31T04:57:46;101840.59;;;9.94;92.07
11190;BME280;5651;50.926;4.718;2022-10-31T05:00:14;101846.69;;;9.96;91.81
11190;BME280;5651;50.926;4.718;2022-10-31T05:02:45;101843.25;;;9.97;91.65
11190;BME280;5651;50.926;4.718;2022-10-31T05:05:12;101843.25;;;9.98;91.32
11190;BME280;5651;50.926;4.718;2022-10-31T05:07:40;101840.66;;;9.98;90.71
11190;BME280;5651;50.926;4.718;2022-10-31T05:10:06;101838.97;;;10.01;91.46
11190;BME280;5651;50.926;4.718;2022-10-31T05:12:32;101841.56;;;10.01;90.85
11190;BME280;5651;50.926;4.718;2022-10-31T05:14:57;101841.56;;;10.01;90.38
11190;BME280;5651;50.926;4.718;2022-10-31T05:17:23;101831.16;;;10.02;90.72
11190;BME280;5651;50.926;4.718;2022-10-31T05:19:48;101823.34;;;10.02;90.89
11190;BME280;5651;50.926;4.718;2022-10-31T05:22:14;101826.88;;;10.06;91.38
11190;BME280;5651;50.926;4.718;2022-10-31T05:24:40;101814.69;;;10.05;91.26
11190;BME280;5651;50.926;4.718;2022-10-31T05:27:05;101819.06;;;10.06;91.01
11190;BME280;5651;50.926;4.718;2022-10-31T05:29:31;101818.22;;;10.07;91.44
11190;BME280;5651;50.926;4.718;2022-10-31T05:31:59;101814.75;;;10.09;91.87
11190;BME280;5651;50.926;4.718;2022-10-31T05:34:24;101810.44;;;10.10;91.41
11190;BME280;5651;50.926;4.718;2022-10-31T05:36:50;101812.19;;;10.11;91.01
11190;BME280;5651;50.926;4.718;2022-10-31T05:39:15;101815.72;;;10.14;91.17
11190;BME280;5651;50.926;4.718;2022-10-31T05:41:41;101819.19;;;10.17;91.64
11190;BME280;5651;50.926;4.718;2022-10-31T05:44:07;101818.34;;;10.18;91.24
11190;BME280;5651;50.926;4.718;2022-10-31T05:46:32;101814.03;;;10.20;91.13
11190;BME280;5651;50.926;4.718;2022-10-31T05:48:58;101815.81;;;10.22;91.29
11190;BME280;5651;50.926;4.718;2022-10-31T05:51:24;101814.09;;;10.23;91.46
11190;BME280;5651;50.926;4.718;2022-10-31T05:53:49;101814.09;;;10.24;91.64
11190;BME280;5651;50.926;4.718;2022-10-31T05:56:15;101815.00;;;10.26;91.70
11190;BME280;5651;50.926;4.718;2022-10-31T05:58:41;101804.59;;;10.28;91.92
11190;BME280;5651;50.926;4.718;2022-10-31T06:01:06;101814.16;;;10.29;92.03
11190;BME280;5651;50.926;4.718;2022-10-31T06:03:32;101812.41;;;10.31;91.80
11190;BME280;5651;50.926;4.718;2022-10-31T06:05:58;101805.56;;;10.35;92.25
11190;BME280;5651;50.926;4.718;2022-10-31T06:08:23;101811.72;;;10.38;93.81
11190;BME280;5651;50.926;4.718;2022-10-31T06:10:49;101815.19;;;10.40;92.15
11190;BME280;5651;50.926;4.718;2022-10-31T06:13:15;101814.38;;;10.44;92.60
11190;BME280;5651;50.926;4.718;2022-10-31T06:15:41;101809.19;;;10.48;92.72
11190;BME280;5651;50.926;4.718;2022-10-31T06:18:07;101812.69;;;10.51;92.88
11190;BME280;5651;50.926;4.718;2022-10-31T06:20:33;101804.91;;;10.53;93.31
11190;BME280;5651;50.926;4.718;2022-10-31T06:22:59;101799.72;;;10.56;94.11
11190;BME280;5651;50.926;4.718;2022-10-31T06:25:25;101798.00;;;10.56;94.08
11190;BME280;5651;50.926;4.718;2022-10-31T06:27:51;101804.97;;;10.59;94.54
11190;BME280;5651;50.926;4.718;2022-10-31T06:30:17;101810.19;;;10.59;93.88
11190;BME280;5651;50.926;4.718;2022-10-31T06:32:42;101808.50;;;10.61;93.73
11190;BME280;5651;50.926;4.718;2022-10-31T06:35:08;101806.75;;;10.63;93.52
11190;BME280;5651;50.926;4.718;2022-10-31T06:37:34;101807.63;;;10.64;92.38
11190;BME280;5651;50.926;4.718;2022-10-31T06:40:00;101806.81;;;10.68;92.21
11190;BME280;5651;50.926;4.718;2022-10-31T06:42:26;101806.91;;;10.75;95.24
11190;BME280;5651;50.926;4.718;2022-10-31T06:44:51;101812.97;;;10.76;95.03
11190;BME280;5651;50.926;4.718;2022-10-31T06:47:17;101807.81;;;10.79;94.52
11190;BME280;5651;50.926;4.718;2022-10-31T06:49:42;101803.44;;;10.81;93.82
11190;BME280;5651;50.926;4.718;2022-10-31T06:52:08;101805.25;;;10.85;93.43
11190;BME280;5651;50.926;4.718;2022-10-31T06:54:34;101804.41;;;10.88;93.49
11190;BME280;5651;50.926;4.718;2022-10-31T06:56:59;101800.03;;;10.88;93.09
11190;BME280;5651;50.926;4.718;2022-10-31T06:59:25;101800.94;;;10.92;93.06
11190;BME280;5651;50.926;4.718;2022-10-31T07:01:51;101799.25;;;10.96;92.77
11190;BME280;5651;50.926;4.718;2022-10-31T07:04:16;101797.53;;;10.99;94.24
11190;BME280;5651;50.926;4.718;2022-10-31T07:06:42;101794.09;;;11.02;94.24
11190;BME280;5651;50.926;4.718;2022-10-31T07:09:08;101801.09;;;11.04;94.45
11190;BME280;5651;50.926;4.718;2022-10-31T07:11:33;101801.97;;;11.08;94.23
11190;BME280;5651;50.926;4.718;2022-10-31T07:13:59;101802.03;;;11.13;94.05
11190;BME280;5651;50.926;4.718;2022-10-31T07:16:25;101787.28;;;11.18;94.63
11190;BME280;5651;50.926;4.718;2022-10-31T07:18:51;101785.59;;;11.24;94.43
11190;BME280;5651;50.926;4.718;2022-10-31T07:21:17;101783.88;;;11.28;94.77
11190;BME280;5651;50.926;4.718;2022-10-31T07:23:42;101803.91;;;11.32;94.10
11190;BME280;5651;50.926;4.718;2022-10-31T07:26:09;101813.53;;;11.36;91.51
11190;BME280;5651;50.926;4.718;2022-10-31T07:28:35;101805.75;;;11.46;92.94
11190;BME280;5651;50.926;4.718;2022-10-31T07:31:00;101797.09;;;11.50;92.66
11190;BME280;5651;50.926;4.718;2022-10-31T07:33:26;101793.66;;;11.57;94.43
11190;BME280;5651;50.926;4.718;2022-10-31T07:35:52;101784.13;;;11.67;96.50
11190;BME280;5651;50.926;4.718;2022-10-31T07:38:18;101793.72;;;11.68;94.26
11190;BME280;5651;50.926;4.718;2022-10-31T07:40:49;101787.66;;;11.77;95.06
11190;BME280;5651;50.926;4.718;2022-10-31T07:43:15;101775.53;;;11.86;98.64
11190;BME280;5651;50.926;4.718;2022-10-31T07:45:41;101793.81;;;11.86;97.42
11190;BME280;5651;50.926;4.718;2022-10-31T07:48:07;101807.78;;;11.93;92.03
11190;BME280;5651;50.926;4.718;2022-10-31T07:50:33;101820.09;;;12.11;90.28
11190;BME280;5651;50.926;4.718;2022-10-31T07:53:00;101811.44;;;12.15;91.64
11190;BME280;5651;50.926;4.718;2022-10-31T07:55:26;101808.84;;;12.22;94.80
11190;BME280;5651;50.926;4.718;2022-10-31T08:00:31;101790.63;;;12.42;99.56
11190;BME280;5651;50.926;4.718;2022-10-31T08:03:02;101801.06;;;12.46;99.78
11190;BME280;5651;50.926;4.718;2022-10-31T08:05:29;101787.13;;;12.52;97.89
11190;BME280;5651;50.926;4.718;2022-10-31T08:07:55;101779.31;;;12.63;99.59
11190;BME280;5651;50.926;4.718;2022-10-31T08:10:21;101779.34;;;12.72;99.65
11190;BME280;5651;50.926;4.718;2022-10-31T08:12:47;101778.50;;;12.84;100.00
11190;BME280;5651;50.926;4.718;2022-10-31T08:15:19;101762.78;;;12.96;100.00
11190;BME280;5651;50.926;4.718;2022-10-31T08:17:45;101763.69;;;13.06;100.00
11190;BME280;5651;50.926;4.718;2022-10-31T08:20:10;101759.31;;;13.16;100.00
11190;BME280;5651;50.926;4.718;2022-10-31T08:22:36;101757.56;;;13.26;100.00
11190;BME280;5651;50.926;4.718;2022-10-31T08:25:02;101737.50;;;13.32;100.00
11190;BME280;5651;50.926;4.718;2022-10-31T08:27:28;101735.75;;;13.36;99.18
11190;BME280;5651;50.926;4.718;2022-10-31T08:29:53;101742.72;;;13.50;99.84
11190;BME280;5651;50.926;4.718;2022-10-31T08:32:19;101745.31;;;13.57;100.00
11190;BME280;5651;50.926;4.718;2022-10-31T08:34:44;101745.28;;;13.67;100.00
11190;BME280;5651;50.926;4.718;2022-10-31T08:37:10;101744.41;;;13.71;100.00
11190;BME280;5651;50.926;4.718;2022-10-31T08:39:36;101736.50;;;13.80;100.00
11190;BME280;5651;50.926;4.718;2022-10-31T08:42:01;101726.84;;;13.90;100.00
11190;BME280;5651;50.926;4.718;2022-10-31T08:44:27;101723.31;;;14.00;100.00
11190;BME280;5651;50.926;4.718;2022-10-31T08:46:53;101725.06;;;14.04;100.00
11190;BME280;5651;50.926;4.718;2022-10-31T08:49:19;101724.16;;;14.10;100.00
11190;BME280;5651;50.926;4.718;2022-10-31T08:51:47;101713.63;;;14.16;100.00
11190;BME280;5651;50.926;4.718;2022-10-31T08:54:13;101710.97;;;14.25;100.00
11190;BME280;5651;50.926;4.718;2022-10-31T08:56:39;101711.81;;;14.29;100.00
11190;BME280;5651;50.926;4.718;2022-10-31T08:59:04;101713.53;;;14.33;100.00
11190;BME280;5651;50.926;4.718;2022-10-31T09:01:30;101711.75;;;14.38;100.00
11190;BME280;5651;50.926;4.718;2022-10-31T09:03:56;101710.00;;;14.42;100.00
11190;BME280;5651;50.926;4.718;2022-10-31T09:06:22;101703.84;;;14.46;100.00
11190;BME280;5651;50.926;4.718;2022-10-31T09:08:47;101695.94;;;14.49;100.00
11190;BME280;5651;50.926;4.718;2022-10-31T09:11:13;101678.47;;;14.51;100.00
11190;BME280;5651;50.926;4.718;2022-10-31T09:13:39;101690.69;;;14.49;100.00
11190;BME280;5651;50.926;4.718;2022-10-31T09:16:04;101701.19;;;14.52;100.00
11190;BME280;5651;50.926;4.718;2022-10-31T09:18:30;101684.53;;;14.56;100.00
11190;BME280;5651;50.926;4.718;2022-10-31T09:20:58;101681.91;;;14.60;100.00
11190;BME280;5651;50.926;4.718;2022-10-31T09:23:25;101698.47;;;14.63;100.00
11190;BME280;5651;50.926;4.718;2022-10-31T09:25:52;101704.56;;;14.70;100.00
11190;BME280;5651;50.926;4.718;2022-10-31T09:28:20;101698.44;;;14.74;100.00
11190;BME280;5651;50.926;4.718;2022-10-31T09:30:47;101686.09;;;14.81;100.00
11190;BME280;5651;50.926;4.718;2022-10-31T09:33:14;101672.06;;;14.86;100.00
11190;BME280;5651;50.926;4.718;2022-10-31T09:35:41;101682.56;;;14.89;100.00
11190;BME280;5651;50.926;4.718;2022-10-31T09:38:17;101693.84;;;14.98;100.00
11190;BME280;5651;50.926;4.718;2022-10-31T09:40:47;101686.75;;;15.08;100.00
11190;BME280;5651;50.926;4.718;2022-10-31T09:43:14;101686.66;;;15.17;100.00
11190;BME280;5651;50.926;4.718;2022-10-31T09:45:47;101682.19;;;15.24;100.00
11190;BME280;5651;50.926;4.718;2022-10-31T09:48:28;101680.38;;;15.30;100.00
11190;BME280;5651;50.926;4.718;2022-10-31T09:51:04;101676.84;;;15.34;100.00
11190;BME280;5651;50.926;4.718;2022-10-31T09:53:40;101665.41;;;15.40;100.00
11190;BME280;5651;50.926;4.718;2022-10-31T09:56:11;101652.19;;;15.46;100.00
11190;BME280;5651;50.926;4.718;2022-10-31T09:58:42;101656.56;;;15.47;100.00
11190;BME280;5651;50.926;4.718;2022-10-31T10:02:01;101655.63;;;15.53;100.00
11190;BME280;5651;50.926;4.718;2022-10-31T10:04:10;101646.84;;;15.54;100.00
11190;BME280;5651;50.926;4.718;2022-10-31T10:06:45;101637.94;;;15.66;100.00
11190;BME280;5651;50.926;4.718;2022-10-31T10:09:12;101635.19;;;15.77;100.00
11190;BME280;5651;50.926;4.718;2022-10-31T10:11:50;101637.69;;;15.88;100.00
11190;BME280;5651;50.926;4.718;2022-10-31T10:14:26;101642.88;;;15.92;100.00
11190;BME280;5651;50.926;4.718;2022-10-31T10:27:40;101629.84;;;16.41;100.00
11190;BME280;5651;50.926;4.718;2022-10-31T10:30:18;101628.81;;;16.51;100.00
11190;BME280;5651;50.926;4.718;2022-10-31T10:32:56;101626.00;;;16.62;100.00
11190;BME280;5651;50.926;4.718;2022-10-31T10:35:30;101619.78;;;16.68;100.00
11190;BME280;5651;50.926;4.718;2022-10-31T10:40:53;101616.00;;;16.83;100.00
11190;BME280;5651;50.926;4.718;2022-10-31T10:43:37;101608.81;;;16.91;100.00
11190;BME280;5651;50.926;4.718;2022-10-31T10:46:42;101592.88;;;17.00;100.00
11190;BME280;5651;50.926;4.718;2022-10-31T10:49:32;101590.19;;;17.03;100.00
11190;BME280;5651;50.926;4.718;2022-10-31T10:52:01;101592.03;;;16.98;100.00
11190;BME280;5651;50.926;4.718;2022-10-31T10:54:54;101595.00;;;16.79;100.00
11190;BME280;5651;50.926;4.718;2022-10-31T10:57:52;101588.47;;;17.01;100.00
11190;BME280;5651;50.926;4.718;2022-10-31T11:00:23;101583.28;;;16.96;100.00
11190;BME280;5651;50.926;4.718;2022-10-31T11:02:50;101584.69;;;17.16;100.00
11190;BME280;5651;50.926;4.718;2022-10-31T11:05:37;101571.06;;;17.37;100.00
11190;BME280;5651;50.926;4.718;2022-10-31T11:08:05;101562.88;;;17.51;100.00
11190;BME280;5651;50.926;4.718;2022-10-31T11:10:31;101559.34;;;17.51;100.00
11190;BME280;5651;50.926;4.718;2022-10-31T11:15:57;101535.44;;;17.60;100.00
11190;BME280;5651;50.926;4.718;2022-10-31T11:18:30;101526.25;;;17.77;99.76
11190;BME280;5651;50.926;4.718;2022-10-31T11:20:58;101519.22;;;17.77;97.93
11190;BME280;5651;50.926;4.718;2022-10-31T11:23:26;101515.03;;;17.68;97.00
11190;BME280;5651;50.926;4.718;2022-10-31T11:25:58;101513.56;;;17.93;97.90
11190;BME280;5651;50.926;4.718;2022-10-31T11:28:26;101505.63;;;17.96;96.61
11190;BME280;5651;50.926;4.718;2022-10-31T11:31:20;101494.41;;;17.86;96.27
11190;BME280;5651;50.926;4.718;2022-10-31T11:33:57;101494.63;;;18.13;96.63
11190;BME280;5651;50.926;4.718;2022-10-31T11:36:27;101485.91;;;18.44;97.35
11190;BME280;5651;50.926;4.718;2022-10-31T11:38:54;101474.88;;;18.61;96.28
11190;BME280;5651;50.926;4.718;2022-10-31T11:41:36;101470.81;;;18.80;96.30
11190;BME280;5651;50.926;4.718;2022-10-31T11:46:57;101462.59;;;19.21;95.04
11190;BME280;5651;50.926;4.718;2022-10-31T11:51:57;101461.47;;;19.84;93.43
11190;BME280;5651;50.926;4.718;2022-10-31T11:54:29;101449.22;;;20.08;89.57
11190;BME280;5651;50.926;4.718;2022-10-31T11:56:56;101444.94;;;20.29;88.00
11190;BME280;5651;50.926;4.718;2022-10-31T11:59:29;101434.22;;;20.81;88.74
11190;BME280;5651;50.926;4.718;2022-10-31T12:01:58;101432.13;;;20.91;87.26
11190;BME280;5651;50.926;4.718;2022-10-31T12:06:54;101415.59;;;21.51;83.19
11190;BME280;5651;50.926;4.718;2022-10-31T12:09:24;101410.69;;;21.84;81.69
11190;BME280;5651;50.926;4.718;2022-10-31T12:14:33;101397.50;;;22.43;81.26
11190;BME280;5651;50.926;4.718;2022-10-31T12:17:23;101387.47;;;22.29;79.11
11190;BME280;5651;50.926;4.718;2022-10-31T12:22:43;101366.94;;;22.33;78.93
11190;BME280;5651;50.926;4.718;2022-10-31T12:30:36;101344.41;;;23.18;76.80
11190;BME280;5651;50.926;4.718;2022-10-31T12:33:24;101336.69;;;23.82;77.29
11190;BME280;5651;50.926;4.718;2022-10-31T12:41:50;101322.03;;;23.40;67.89
11190;BME280;5651;50.926;4.718;2022-10-31T12:53:25;101296.31;;;25.79;68.27
11190;BME280;5651;50.926;4.718;2022-10-31T12:56:15;101287.25;;;26.25;66.10
11190;BME280;5651;50.926;4.718;2022-10-31T12:58:49;101282.97;;;26.92;67.76
11190;BME280;5651;50.926;4.718;2022-10-31T13:01:23;101277.84;;;26.47;62.32
11190;BME280;5651;50.926;4.718;2022-10-31T13:06:25;101273.66;;;26.70;62.73
11190;BME280;5651;50.926;4.718;2022-10-31T13:08:56;101266.97;;;26.63;62.42
11190;BME280;5651;50.926;4.718;2022-10-31T13:11:28;101263.50;;;27.02;64.49
11190;BME280;5651;50.926;4.718;2022-10-31T13:16:30;101266.34;;;26.86;58.69
11190;BME280;5651;50.926;4.718;2022-10-31T13:19:13;101255.22;;;26.80;60.42
11190;BME280;5651;50.926;4.718;2022-10-31T13:21:51;101261.13;;;25.43;57.37
11190;BME280;5651;50.926;4.718;2022-10-31T13:24:54;101251.97;;;25.17;59.74
11190;BME280;5651;50.926;4.718;2022-10-31T13:27:24;101243.19;;;25.00;60.13
11190;BME280;5651;50.926;4.718;2022-10-31T13:30:01;101230.66;;;25.17;62.52
11190;BME280;5651;50.926;4.718;2022-10-31T13:32:42;101220.03;;;25.01;62.73
11190;BME280;5651;50.926;4.718;2022-10-31T13:35:51;101210.78;;;25.52;61.83
11190;BME280;5651;50.926;4.718;2022-10-31T13:38:31;101216.88;;;25.97;60.03
11190;BME280;5651;50.926;4.718;2022-10-31T13:41:11;101204.75;;;25.91;58.08
11190;BME280;5651;50.926;4.718;2022-10-31T13:44:03;101196.81;;;26.46;60.15
11190;BME280;5651;50.926;4.718;2022-10-31T13:46:41;101200.38;;;26.60;58.73
11190;BME280;5651;50.926;4.718;2022-10-31T13:51:51;101182.06;;;26.66;57.25
11190;BME280;5651;50.926;4.718;2022-10-31T13:54:29;101178.66;;;26.92;57.40
11190;BME280;5651;50.926;4.718;2022-10-31T13:56:57;101171.38;;;27.32;57.57
11190;BME280;5651;50.926;4.718;2022-10-31T13:59:24;101159.16;;;27.41;58.11
11190;BME280;5651;50.926;4.718;2022-10-31T14:01:59;101152.41;;;27.48;55.41
11190;BME280;5651;50.926;4.718;2022-10-31T14:04:37;101143.00;;;27.04;54.40
11190;BME280;5651;50.926;4.718;2022-10-31T14:07:21;101127.50;;;27.48;55.07
11190;BME280;5651;50.926;4.718;2022-10-31T14:12:38;101117.72;;;27.34;52.23
11190;BME280;5651;50.926;4.718;2022-10-31T14:15:20;101121.66;;;27.41;54.47
11190;BME280;5651;50.926;4.718;2022-10-31T14:17:50;101115.75;;;26.99;53.50
11190;BME280;5651;50.926;4.718;2022-10-31T14:20:21;101119.47;;;27.09;54.34
11190;BME280;5651;50.926;4.718;2022-10-31T14:22:48;101121.25;;;26.70;53.12
11190;BME280;5651;50.926;4.718;2022-10-31T14:25:34;101121.97;;;26.59;53.85
11190;BME280;5651;50.926;4.718;2022-10-31T14:28:03;101115.41;;;27.03;56.13
11190;BME280;5651;50.926;4.718;2022-10-31T14:30:51;101110.25;;;27.26;54.86
11190;BME280;5651;50.926;4.718;2022-10-31T14:33:22;101109.00;;;27.06;55.03
11190;BME280;5651;50.926;4.718;2022-10-31T14:38:50;101102.56;;;26.96;55.00
11190;BME280;5651;50.926;4.718;2022-10-31T14:41:49;101114.19;;;26.69;54.91
11190;BME280;5651;50.926;4.718;2022-10-31T14:50:29;101102.13;;;25.54;56.21
11190;BME280;5651;50.926;4.718;2022-10-31T14:52:55;101097.84;;;25.22;56.52
11190;BME280;5651;50.926;4.718;2022-10-31T14:55:23;101098.97;;;24.89;56.78
11190;BME280;5651;50.926;4.718;2022-10-31T14:57:54;101088.69;;;24.38;56.93